Hendrum, Minnesota
Current Conditions -  °F | °C
As of 10:47 AM on Monday 24 Nov 2014 (Local Time) from KFAR Reporting Station
Unknown Precip Unknown Precip  
Wind Chill: -12°   Ceiling: 2400
Heat Index:   Visibility: 2.5mi
Dew Point:   Wind: 24mph
Humidity: 79%   Direction: 340°NNW
Pressure: 29.75"   Gusts: 30mph
Location:  47.26°N, 96.81°W
Report Text: KFAR 241647Z 34021G26KT 2 1/2SM UP SCT013 OVC024 M13/M16 A2975 RMK AO2 PK WND 33029/1600 UPB1555E04B46SNB1554E1555B04E42 P0000
Loading
Personal Weather Stations






























Interactive Weather Map New forecast layout! Learn more

10-Day Weather Forecast

Advertisements
Track Severe Weather on mobile